sensor_id;sensor_type;location;lat;lon;timestamp;P1;durP1;ratioP1;P2;durP2;ratioP2
31818;SDS011;18384;48.860;9.188;2022-08-21T00:00:16;8.73;;;1.98;;
31818;SDS011;18384;48.860;9.188;2022-08-21T00:02:49;4.57;;;2.10;;
31818;SDS011;18384;48.860;9.188;2022-08-21T00:05:20;5.90;;;1.67;;
31818;SDS011;18384;48.860;9.188;2022-08-21T00:07:48;5.53;;;2.03;;
31818;SDS011;18384;48.860;9.188;2022-08-21T00:10:14;6.60;;;1.87;;
31818;SDS011;18384;48.860;9.188;2022-08-21T00:12:40;4.87;;;1.73;;
31818;SDS011;18384;48.860;9.188;2022-08-21T00:15:08;5.22;;;1.92;;
31818;SDS011;18384;48.860;9.188;2022-08-21T00:17:38;6.25;;;1.90;;
31818;SDS011;18384;48.860;9.188;2022-08-21T00:20:05;4.97;;;2.00;;
31818;SDS011;18384;48.860;9.188;2022-08-21T00:22:35;7.82;;;1.77;;
31818;SDS011;18384;48.860;9.188;2022-08-21T00:25:03;5.90;;;2.00;;
31818;SDS011;18384;48.860;9.188;2022-08-21T00:27:32;6.12;;;2.47;;
31818;SDS011;18384;48.860;9.188;2022-08-21T00:29:59;5.43;;;2.35;;
31818;SDS011;18384;48.860;9.188;2022-08-21T00:32:26;8.60;;;2.30;;
31818;SDS011;18384;48.860;9.188;2022-08-21T00:34:53;5.78;;;2.08;;
31818;SDS011;18384;48.860;9.188;2022-08-21T00:37:20;5.45;;;2.20;;
31818;SDS011;18384;48.860;9.188;2022-08-21T00:39:46;5.90;;;2.00;;
31818;SDS011;18384;48.860;9.188;2022-08-21T00:42:13;8.40;;;2.97;;
31818;SDS011;18384;48.860;9.188;2022-08-21T00:44:43;4.78;;;1.87;;
31818;SDS011;18384;48.860;9.188;2022-08-21T00:47:11;5.85;;;1.90;;
31818;SDS011;18384;48.860;9.188;2022-08-21T00:52:05;10.23;;;2.13;;
31818;SDS011;18384;48.860;9.188;2022-08-21T00:54:38;4.82;;;1.58;;
31818;SDS011;18384;48.860;9.188;2022-08-21T00:57:10;4.32;;;1.83;;
31818;SDS011;18384;48.860;9.188;2022-08-21T00:59:43;6.25;;;1.85;;
31818;SDS011;18384;48.860;9.188;2022-08-21T01:02:13;8.55;;;2.35;;
31818;SDS011;18384;48.860;9.188;2022-08-21T01:04:42;6.15;;;1.62;;
31818;SDS011;18384;48.860;9.188;2022-08-21T01:09:34;3.97;;;1.90;;
31818;SDS011;18384;48.860;9.188;2022-08-21T01:12:02;6.20;;;2.37;;
31818;SDS011;18384;48.860;9.188;2022-08-21T01:14:28;5.75;;;1.98;;
31818;SDS011;18384;48.860;9.188;2022-08-21T01:16:55;4.28;;;2.20;;
31818;SDS011;18384;48.860;9.188;2022-08-21T01:19:22;4.20;;;2.03;;
31818;SDS011;18384;48.860;9.188;2022-08-21T01:21:50;4.53;;;1.77;;
31818;SDS011;18384;48.860;9.188;2022-08-21T01:24:19;9.20;;;2.45;;
31818;SDS011;18384;48.860;9.188;2022-08-21T01:26:45;6.15;;;1.90;;
31818;SDS011;18384;48.860;9.188;2022-08-21T01:31:45;7.78;;;2.65;;
31818;SDS011;18384;48.860;9.188;2022-08-21T01:36:38;7.20;;;2.25;;
31818;SDS011;18384;48.860;9.188;2022-08-21T01:41:30;5.90;;;2.10;;
31818;SDS011;18384;48.860;9.188;2022-08-21T01:46:22;5.45;;;1.77;;
31818;SDS011;18384;48.860;9.188;2022-08-21T01:48:49;5.95;;;2.20;;
31818;SDS011;18384;48.860;9.188;2022-08-21T01:51:15;9.82;;;2.35;;
31818;SDS011;18384;48.860;9.188;2022-08-21T01:53:41;4.82;;;2.10;;
31818;SDS011;18384;48.860;9.188;2022-08-21T01:58:36;8.25;;;2.17;;
31818;SDS011;18384;48.860;9.188;2022-08-21T02:03:29;6.47;;;1.90;;
31818;SDS011;18384;48.860;9.188;2022-08-21T02:05:56;4.35;;;2.05;;
31818;SDS011;18384;48.860;9.188;2022-08-21T02:10:48;6.32;;;2.40;;
31818;SDS011;18384;48.860;9.188;2022-08-21T02:13:16;7.32;;;3.08;;
31818;SDS011;18384;48.860;9.188;2022-08-21T02:15:43;9.90;;;3.05;;
31818;SDS011;18384;48.860;9.188;2022-08-21T02:18:10;8.40;;;3.40;;
31818;SDS011;18384;48.860;9.188;2022-08-21T02:20:37;7.82;;;3.33;;
31818;SDS011;18384;48.860;9.188;2022-08-21T02:23:08;6.62;;;3.00;;
31818;SDS011;18384;48.860;9.188;2022-08-21T02:25:37;8.15;;;3.87;;
31818;SDS011;18384;48.860;9.188;2022-08-21T02:28:05;6.32;;;2.33;;
31818;SDS011;18384;48.860;9.188;2022-08-21T02:30:41;6.60;;;1.87;;
31818;SDS011;18384;48.860;9.188;2022-08-21T02:33:13;5.05;;;2.35;;
31818;SDS011;18384;48.860;9.188;2022-08-21T02:35:40;6.43;;;2.47;;
31818;SDS011;18384;48.860;9.188;2022-08-21T02:38:09;8.45;;;2.87;;
31818;SDS011;18384;48.860;9.188;2022-08-21T02:40:39;6.22;;;2.30;;
31818;SDS011;18384;48.860;9.188;2022-08-21T02:43:09;6.30;;;2.30;;
31818;SDS011;18384;48.860;9.188;2022-08-21T02:45:36;7.28;;;2.53;;
31818;SDS011;18384;48.860;9.188;2022-08-21T02:48:05;5.35;;;2.10;;
31818;SDS011;18384;48.860;9.188;2022-08-21T02:50:36;4.37;;;2.05;;
31818;SDS011;18384;48.860;9.188;2022-08-21T02:53:12;6.93;;;2.35;;
31818;SDS011;18384;48.860;9.188;2022-08-21T02:55:42;6.12;;;2.35;;
31818;SDS011;18384;48.860;9.188;2022-08-21T02:58:12;5.87;;;2.12;;
31818;SDS011;18384;48.860;9.188;2022-08-21T03:00:40;3.53;;;2.10;;
31818;SDS011;18384;48.860;9.188;2022-08-21T03:03:08;4.70;;;2.15;;
31818;SDS011;18384;48.860;9.188;2022-08-21T03:05:35;6.07;;;2.20;;
31818;SDS011;18384;48.860;9.188;2022-08-21T03:08:07;6.75;;;2.80;;
31818;SDS011;18384;48.860;9.188;2022-08-21T03:10:37;9.07;;;2.65;;
31818;SDS011;18384;48.860;9.188;2022-08-21T03:13:07;6.50;;;2.90;;
31818;SDS011;18384;48.860;9.188;2022-08-21T03:15:34;5.80;;;2.25;;
31818;SDS011;18384;48.860;9.188;2022-08-21T03:18:02;6.30;;;2.20;;
31818;SDS011;18384;48.860;9.188;2022-08-21T03:20:29;4.53;;;2.28;;
31818;SDS011;18384;48.860;9.188;2022-08-21T03:22:58;7.68;;;2.30;;
31818;SDS011;18384;48.860;9.188;2022-08-21T03:25:26;6.25;;;2.50;;
31818;SDS011;18384;48.860;9.188;2022-08-21T03:27:53;4.68;;;2.45;;
31818;SDS011;18384;48.860;9.188;2022-08-21T03:30:21;3.60;;;2.20;;
31818;SDS011;18384;48.860;9.188;2022-08-21T03:32:47;4.40;;;2.30;;
31818;SDS011;18384;48.860;9.188;2022-08-21T03:35:14;4.65;;;2.00;;
31818;SDS011;18384;48.860;9.188;2022-08-21T03:37:40;7.40;;;2.50;;
31818;SDS011;18384;48.860;9.188;2022-08-21T03:42:34;10.43;;;2.92;;
31818;SDS011;18384;48.860;9.188;2022-08-21T03:45:00;7.85;;;2.53;;
31818;SDS011;18384;48.860;9.188;2022-08-21T03:47:27;7.37;;;2.33;;
31818;SDS011;18384;48.860;9.188;2022-08-21T03:49:53;6.47;;;2.50;;
31818;SDS011;18384;48.860;9.188;2022-08-21T03:52:19;7.10;;;3.05;;
31818;SDS011;18384;48.860;9.188;2022-08-21T03:54:45;8.70;;;3.00;;
31818;SDS011;18384;48.860;9.188;2022-08-21T03:59:38;12.40;;;2.83;;
31818;SDS011;18384;48.860;9.188;2022-08-21T04:02:05;3.87;;;2.28;;
31818;SDS011;18384;48.860;9.188;2022-08-21T04:04:32;9.90;;;3.17;;
31818;SDS011;18384;48.860;9.188;2022-08-21T04:06:59;4.85;;;2.60;;
31818;SDS011;18384;48.860;9.188;2022-08-21T04:09:26;6.40;;;2.60;;
31818;SDS011;18384;48.860;9.188;2022-08-21T04:11:53;6.87;;;2.40;;
31818;SDS011;18384;48.860;9.188;2022-08-21T04:14:19;10.20;;;2.90;;
31818;SDS011;18384;48.860;9.188;2022-08-21T04:16:46;5.43;;;3.05;;
31818;SDS011;18384;48.860;9.188;2022-08-21T04:19:12;8.85;;;4.75;;
31818;SDS011;18384;48.860;9.188;2022-08-21T04:21:39;7.03;;;2.80;;
31818;SDS011;18384;48.860;9.188;2022-08-21T04:24:07;7.10;;;2.40;;
31818;SDS011;18384;48.860;9.188;2022-08-21T04:26:36;6.87;;;2.50;;
31818;SDS011;18384;48.860;9.188;2022-08-21T04:29:04;7.07;;;2.50;;
31818;SDS011;18384;48.860;9.188;2022-08-21T04:31:32;8.05;;;2.78;;
31818;SDS011;18384;48.860;9.188;2022-08-21T04:34:01;5.78;;;2.65;;
31818;SDS011;18384;48.860;9.188;2022-08-21T04:36:29;8.20;;;2.40;;
31818;SDS011;18384;48.860;9.188;2022-08-21T04:38:57;7.70;;;3.00;;
31818;SDS011;18384;48.860;9.188;2022-08-21T04:41:24;7.80;;;2.58;;
31818;SDS011;18384;48.860;9.188;2022-08-21T04:43:51;8.30;;;2.80;;
31818;SDS011;18384;48.860;9.188;2022-08-21T04:46:17;6.93;;;2.80;;
31818;SDS011;18384;48.860;9.188;2022-08-21T04:48:44;5.93;;;2.30;;
31818;SDS011;18384;48.860;9.188;2022-08-21T04:51:12;11.10;;;3.03;;
31818;SDS011;18384;48.860;9.188;2022-08-21T04:53:51;7.55;;;2.28;;
31818;SDS011;18384;48.860;9.188;2022-08-21T04:56:41;3.97;;;2.50;;
31818;SDS011;18384;48.860;9.188;2022-08-21T04:59:13;4.47;;;2.35;;
31818;SDS011;18384;48.860;9.188;2022-08-21T05:01:46;4.65;;;2.35;;
31818;SDS011;18384;48.860;9.188;2022-08-21T05:04:12;8.73;;;2.72;;
31818;SDS011;18384;48.860;9.188;2022-08-21T05:06:44;7.70;;;2.62;;
31818;SDS011;18384;48.860;9.188;2022-08-21T05:09:15;9.68;;;2.87;;
31818;SDS011;18384;48.860;9.188;2022-08-21T05:11:43;5.62;;;2.55;;
31818;SDS011;18384;48.860;9.188;2022-08-21T05:14:11;4.40;;;2.37;;
31818;SDS011;18384;48.860;9.188;2022-08-21T05:16:38;8.02;;;2.60;;
31818;SDS011;18384;48.860;9.188;2022-08-21T05:19:05;7.30;;;2.35;;
31818;SDS011;18384;48.860;9.188;2022-08-21T05:21:33;5.65;;;2.62;;
31818;SDS011;18384;48.860;9.188;2022-08-21T05:24:00;8.73;;;2.60;;
31818;SDS011;18384;48.860;9.188;2022-08-21T05:26:27;5.82;;;3.00;;
31818;SDS011;18384;48.860;9.188;2022-08-21T05:28:53;3.83;;;2.15;;
31818;SDS011;18384;48.860;9.188;2022-08-21T05:31:19;8.30;;;2.58;;
31818;SDS011;18384;48.860;9.188;2022-08-21T05:33:45;7.53;;;2.80;;
31818;SDS011;18384;48.860;9.188;2022-08-21T05:36:11;8.80;;;2.30;;
31818;SDS011;18384;48.860;9.188;2022-08-21T05:38:37;8.02;;;2.55;;
31818;SDS011;18384;48.860;9.188;2022-08-21T05:41:04;11.00;;;2.80;;
31818;SDS011;18384;48.860;9.188;2022-08-21T05:43:30;6.60;;;2.78;;
31818;SDS011;18384;48.860;9.188;2022-08-21T05:45:58;4.40;;;2.50;;
31818;SDS011;18384;48.860;9.188;2022-08-21T05:48:24;5.28;;;2.53;;
31818;SDS011;18384;48.860;9.188;2022-08-21T05:50:50;10.15;;;2.70;;
31818;SDS011;18384;48.860;9.188;2022-08-21T05:53:18;5.30;;;2.60;;
31818;SDS011;18384;48.860;9.188;2022-08-21T05:55:47;5.72;;;2.62;;
31818;SDS011;18384;48.860;9.188;2022-08-21T05:58:15;7.80;;;2.80;;
31818;SDS011;18384;48.860;9.188;2022-08-21T06:00:45;7.47;;;2.90;;
31818;SDS011;18384;48.860;9.188;2022-08-21T06:03:17;7.10;;;2.40;;
31818;SDS011;18384;48.860;9.188;2022-08-21T06:05:47;5.40;;;2.62;;
31818;SDS011;18384;48.860;9.188;2022-08-21T06:08:14;6.65;;;2.55;;
31818;SDS011;18384;48.860;9.188;2022-08-21T06:10:42;12.35;;;2.50;;
31818;SDS011;18384;48.860;9.188;2022-08-21T06:13:09;4.28;;;2.50;;
31818;SDS011;18384;48.860;9.188;2022-08-21T06:15:36;14.63;;;2.90;;
31818;SDS011;18384;48.860;9.188;2022-08-21T06:18:03;5.05;;;2.65;;
31818;SDS011;18384;48.860;9.188;2022-08-21T06:22:56;7.93;;;2.50;;
31818;SDS011;18384;48.860;9.188;2022-08-21T06:25:22;9.82;;;2.85;;
31818;SDS011;18384;48.860;9.188;2022-08-21T06:27:49;5.32;;;2.53;;
31818;SDS011;18384;48.860;9.188;2022-08-21T06:30:16;4.68;;;2.45;;
31818;SDS011;18384;48.860;9.188;2022-08-21T06:32:42;5.37;;;2.40;;
31818;SDS011;18384;48.860;9.188;2022-08-21T06:35:09;7.72;;;2.75;;
31818;SDS011;18384;48.860;9.188;2022-08-21T06:37:36;7.00;;;2.72;;
31818;SDS011;18384;48.860;9.188;2022-08-21T06:40:03;9.13;;;2.70;;
31818;SDS011;18384;48.860;9.188;2022-08-21T06:42:31;12.15;;;3.03;;
31818;SDS011;18384;48.860;9.188;2022-08-21T06:44:57;8.27;;;2.80;;
31818;SDS011;18384;48.860;9.188;2022-08-21T06:47:23;8.68;;;2.67;;
31818;SDS011;18384;48.860;9.188;2022-08-21T06:49:49;7.43;;;2.53;;
31818;SDS011;18384;48.860;9.188;2022-08-21T06:52:16;8.43;;;2.45;;
31818;SDS011;18384;48.860;9.188;2022-08-21T06:57:08;6.47;;;3.28;;
31818;SDS011;18384;48.860;9.188;2022-08-21T06:59:35;8.02;;;2.58;;
31818;SDS011;18384;48.860;9.188;2022-08-21T07:02:01;13.90;;;2.58;;
31818;SDS011;18384;48.860;9.188;2022-08-21T07:06:53;8.23;;;2.50;;
31818;SDS011;18384;48.860;9.188;2022-08-21T07:09:19;9.05;;;2.33;;
31818;SDS011;18384;48.860;9.188;2022-08-21T07:14:16;10.60;;;2.50;;
31818;SDS011;18384;48.860;9.188;2022-08-21T07:16:42;5.72;;;2.50;;
31818;SDS011;18384;48.860;9.188;2022-08-21T07:19:09;10.48;;;2.40;;
31818;SDS011;18384;48.860;9.188;2022-08-21T07:21:35;6.55;;;2.80;;
31818;SDS011;18384;48.860;9.188;2022-08-21T07:24:01;5.68;;;2.62;;
31818;SDS011;18384;48.860;9.188;2022-08-21T07:26:28;9.05;;;2.75;;
31818;SDS011;18384;48.860;9.188;2022-08-21T07:28:54;5.28;;;2.15;;
31818;SDS011;18384;48.860;9.188;2022-08-21T07:31:21;6.35;;;2.20;;
31818;SDS011;18384;48.860;9.188;2022-08-21T07:33:49;9.18;;;2.90;;
31818;SDS011;18384;48.860;9.188;2022-08-21T07:36:15;9.65;;;3.17;;
31818;SDS011;18384;48.860;9.188;2022-08-21T07:41:10;9.05;;;3.15;;
31818;SDS011;18384;48.860;9.188;2022-08-21T07:43:42;10.00;;;3.28;;
31818;SDS011;18384;48.860;9.188;2022-08-21T07:46:08;10.55;;;3.50;;
31818;SDS011;18384;48.860;9.188;2022-08-21T07:48:35;12.75;;;3.45;;
31818;SDS011;18384;48.860;9.188;2022-08-21T07:51:02;10.13;;;3.00;;
31818;SDS011;18384;48.860;9.188;2022-08-21T07:53:34;11.88;;;3.70;;
31818;SDS011;18384;48.860;9.188;2022-08-21T07:56:01;11.85;;;3.15;;
31818;SDS011;18384;48.860;9.188;2022-08-21T07:58:30;9.73;;;2.58;;
31818;SDS011;18384;48.860;9.188;2022-08-21T08:00:56;11.82;;;3.22;;
31818;SDS011;18384;48.860;9.188;2022-08-21T08:05:49;10.27;;;3.40;;
31818;SDS011;18384;48.860;9.188;2022-08-21T08:10:41;10.10;;;3.10;;
31818;SDS011;18384;48.860;9.188;2022-08-21T08:13:08;10.32;;;3.75;;
31818;SDS011;18384;48.860;9.188;2022-08-21T08:18:04;7.87;;;2.70;;
31818;SDS011;18384;48.860;9.188;2022-08-21T08:20:30;9.70;;;3.87;;
31818;SDS011;18384;48.860;9.188;2022-08-21T08:22:56;10.07;;;3.80;;
31818;SDS011;18384;48.860;9.188;2022-08-21T08:27:49;12.27;;;3.65;;
31818;SDS011;18384;48.860;9.188;2022-08-21T08:32:43;12.35;;;3.72;;
31818;SDS011;18384;48.860;9.188;2022-08-21T08:35:09;11.30;;;3.97;;
31818;SDS011;18384;48.860;9.188;2022-08-21T08:37:37;15.75;;;4.07;;
31818;SDS011;18384;48.860;9.188;2022-08-21T08:40:18;12.52;;;3.92;;
31818;SDS011;18384;48.860;9.188;2022-08-21T08:43:13;11.12;;;3.50;;
31818;SDS011;18384;48.860;9.188;2022-08-21T08:45:40;8.95;;;3.22;;
31818;SDS011;18384;48.860;9.188;2022-08-21T08:48:13;10.10;;;3.25;;
31818;SDS011;18384;48.860;9.188;2022-08-21T08:50:53;10.25;;;3.20;;
31818;SDS011;18384;48.860;9.188;2022-08-21T08:53:29;9.77;;;3.47;;
31818;SDS011;18384;48.860;9.188;2022-08-21T08:56:09;9.30;;;3.50;;
31818;SDS011;18384;48.860;9.188;2022-08-21T08:58:40;7.82;;;3.17;;
31818;SDS011;18384;48.860;9.188;2022-08-21T09:01:19;7.53;;;2.97;;
31818;SDS011;18384;48.860;9.188;2022-08-21T09:03:46;9.20;;;3.60;;
31818;SDS011;18384;48.860;9.188;2022-08-21T09:07:00;8.52;;;2.95;;
31818;SDS011;18384;48.860;9.188;2022-08-21T09:10:02;7.82;;;3.03;;
31818;SDS011;18384;48.860;9.188;2022-08-21T09:13:43;17.73;;;4.30;;
31818;SDS011;18384;48.860;9.188;2022-08-21T09:19:45;13.32;;;3.55;;
31818;SDS011;18384;48.860;9.188;2022-08-21T09:22:44;8.50;;;3.62;;
31818;SDS011;18384;48.860;9.188;2022-08-21T09:26:27;7.35;;;2.70;;
31818;SDS011;18384;48.860;9.188;2022-08-21T09:29:14;8.23;;;3.70;;
31818;SDS011;18384;48.860;9.188;2022-08-21T09:31:46;8.25;;;3.00;;
31818;SDS011;18384;48.860;9.188;2022-08-21T09:34:22;11.50;;;3.10;;
31818;SDS011;18384;48.860;9.188;2022-08-21T09:36:56;7.60;;;3.03;;
31818;SDS011;18384;48.860;9.188;2022-08-21T09:39:28;7.07;;;2.75;;
31818;SDS011;18384;48.860;9.188;2022-08-21T09:42:03;10.50;;;2.97;;
31818;SDS011;18384;48.860;9.188;2022-08-21T09:44:34;8.55;;;2.70;;
31818;SDS011;18384;48.860;9.188;2022-08-21T09:47:09;6.97;;;2.40;;
31818;SDS011;18384;48.860;9.188;2022-08-21T09:49:40;7.37;;;2.58;;
31818;SDS011;18384;48.860;9.188;2022-08-21T09:55:56;13.62;;;3.20;;
31818;SDS011;18384;48.860;9.188;2022-08-21T09:58:58;12.32;;;3.25;;
31818;SDS011;18384;48.860;9.188;2022-08-21T10:04:09;9.32;;;2.75;;
31818;SDS011;18384;48.860;9.188;2022-08-21T10:06:36;17.35;;;2.67;;
31818;SDS011;18384;48.860;9.188;2022-08-21T10:09:07;7.97;;;2.72;;
31818;SDS011;18384;48.860;9.188;2022-08-21T10:11:40;11.52;;;2.78;;
31818;SDS011;18384;48.860;9.188;2022-08-21T10:15:01;14.10;;;3.17;;
31818;SDS011;18384;48.860;9.188;2022-08-21T10:18:40;11.57;;;3.17;;
31818;SDS011;18384;48.860;9.188;2022-08-21T10:24:13;8.23;;;2.30;;
31818;SDS011;18384;48.860;9.188;2022-08-21T10:28:30;5.75;;;2.30;;
31818;SDS011;18384;48.860;9.188;2022-08-21T10:31:20;13.13;;;2.90;;
31818;SDS011;18384;48.860;9.188;2022-08-21T10:34:21;13.20;;;2.95;;
31818;SDS011;18384;48.860;9.188;2022-08-21T10:43:21;7.35;;;2.87;;
31818;SDS011;18384;48.860;9.188;2022-08-21T10:50:26;6.82;;;2.58;;
31818;SDS011;18384;48.860;9.188;2022-08-21T10:54:03;11.05;;;3.30;;
31818;SDS011;18384;48.860;9.188;2022-08-21T11:03:29;6.85;;;2.55;;
31818;SDS011;18384;48.860;9.188;2022-08-21T11:06:16;9.82;;;2.85;;
31818;SDS011;18384;48.860;9.188;2022-08-21T11:09:03;10.82;;;3.12;;
31818;SDS011;18384;48.860;9.188;2022-08-21T11:11:47;7.80;;;2.50;;
31818;SDS011;18384;48.860;9.188;2022-08-21T11:18:03;6.87;;;2.33;;
31818;SDS011;18384;48.860;9.188;2022-08-21T11:25:44;9.90;;;3.12;;
31818;SDS011;18384;48.860;9.188;2022-08-21T11:28:28;11.02;;;2.30;;
31818;SDS011;18384;48.860;9.188;2022-08-21T11:31:11;9.73;;;2.53;;
31818;SDS011;18384;48.860;9.188;2022-08-21T11:34:04;5.80;;;2.45;;
31818;SDS011;18384;48.860;9.188;2022-08-21T11:41:30;5.47;;;2.25;;
31818;SDS011;18384;48.860;9.188;2022-08-21T11:50:16;5.55;;;2.05;;
31818;SDS011;18384;48.860;9.188;2022-08-21T11:52:51;9.27;;;2.60;;
31818;SDS011;18384;48.860;9.188;2022-08-21T11:55:32;5.85;;;2.15;;
31818;SDS011;18384;48.860;9.188;2022-08-21T12:01:45;4.87;;;1.75;;
31818;SDS011;18384;48.860;9.188;2022-08-21T12:04:32;10.48;;;2.83;;
31818;SDS011;18384;48.860;9.188;2022-08-21T12:07:13;7.65;;;2.25;;
31818;SDS011;18384;48.860;9.188;2022-08-21T12:10:05;4.32;;;2.03;;
31818;SDS011;18384;48.860;9.188;2022-08-21T12:12:39;6.28;;;2.12;;
31818;SDS011;18384;48.860;9.188;2022-08-21T12:15:16;7.60;;;2.33;;
31818;SDS011;18384;48.860;9.188;2022-08-21T12:18:36;9.85;;;3.08;;
31818;SDS011;18384;48.860;9.188;2022-08-21T12:30:57;8.85;;;2.00;;
31818;SDS011;18384;48.860;9.188;2022-08-21T12:33:37;6.87;;;2.22;;
31818;SDS011;18384;48.860;9.188;2022-08-21T12:36:07;5.53;;;2.25;;
31818;SDS011;18384;48.860;9.188;2022-08-21T12:38:43;8.20;;;2.17;;
31818;SDS011;18384;48.860;9.188;2022-08-21T12:41:34;9.68;;;2.15;;
31818;SDS011;18384;48.860;9.188;2022-08-21T12:44:21;6.50;;;2.12;;
31818;SDS011;18384;48.860;9.188;2022-08-21T12:47:03;7.53;;;2.50;;
31818;SDS011;18384;48.860;9.188;2022-08-21T12:49:51;7.65;;;2.28;;
31818;SDS011;18384;48.860;9.188;2022-08-21T12:52:28;7.00;;;2.00;;
31818;SDS011;18384;48.860;9.188;2022-08-21T12:55:00;6.37;;;2.28;;
31818;SDS011;18384;48.860;9.188;2022-08-21T12:57:28;9.38;;;2.33;;
31818;SDS011;18384;48.860;9.188;2022-08-21T12:59:56;6.30;;;2.47;;
31818;SDS011;18384;48.860;9.188;2022-08-21T13:02:33;4.70;;;1.95;;
31818;SDS011;18384;48.860;9.188;2022-08-21T13:05:05;5.90;;;2.12;;
31818;SDS011;18384;48.860;9.188;2022-08-21T13:07:36;4.78;;;1.92;;
31818;SDS011;18384;48.860;9.188;2022-08-21T13:10:05;6.37;;;2.20;;
31818;SDS011;18384;48.860;9.188;2022-08-21T13:12:42;5.12;;;2.00;;
31818;SDS011;18384;48.860;9.188;2022-08-21T13:15:09;5.68;;;1.90;;
31818;SDS011;18384;48.860;9.188;2022-08-21T13:17:38;7.55;;;2.25;;
31818;SDS011;18384;48.860;9.188;2022-08-21T13:20:19;12.32;;;2.12;;
31818;SDS011;18384;48.860;9.188;2022-08-21T13:22:49;6.65;;;1.80;;
31818;SDS011;18384;48.860;9.188;2022-08-21T13:25:17;6.50;;;2.35;;
31818;SDS011;18384;48.860;9.188;2022-08-21T13:27:57;6.68;;;2.25;;
31818;SDS011;18384;48.860;9.188;2022-08-21T13:30:37;6.20;;;2.25;;
31818;SDS011;18384;48.860;9.188;2022-08-21T13:33:09;5.20;;;2.17;;
31818;SDS011;18384;48.860;9.188;2022-08-21T13:39:33;8.20;;;2.00;;
31818;SDS011;18384;48.860;9.188;2022-08-21T13:42:00;10.43;;;2.22;;
31818;SDS011;18384;48.860;9.188;2022-08-21T13:44:36;5.32;;;2.10;;
31818;SDS011;18384;48.860;9.188;2022-08-21T13:47:10;7.40;;;2.05;;
31818;SDS011;18384;48.860;9.188;2022-08-21T13:49:39;5.35;;;2.00;;
31818;SDS011;18384;48.860;9.188;2022-08-21T13:52:33;7.22;;;2.15;;
31818;SDS011;18384;48.860;9.188;2022-08-21T13:55:18;6.35;;;2.42;;
31818;SDS011;18384;48.860;9.188;2022-08-21T14:00:18;6.87;;;1.77;;
31818;SDS011;18384;48.860;9.188;2022-08-21T14:02:50;6.47;;;2.33;;
31818;SDS011;18384;48.860;9.188;2022-08-21T14:05:20;6.50;;;2.47;;
31818;SDS011;18384;48.860;9.188;2022-08-21T14:08:41;5.62;;;1.98;;
31818;SDS011;18384;48.860;9.188;2022-08-21T14:11:56;5.73;;;1.80;;
31818;SDS011;18384;48.860;9.188;2022-08-21T14:14:29;6.10;;;1.80;;
31818;SDS011;18384;48.860;9.188;2022-08-21T14:17:03;7.22;;;2.17;;
31818;SDS011;18384;48.860;9.188;2022-08-21T14:19:37;5.32;;;2.05;;
31818;SDS011;18384;48.860;9.188;2022-08-21T14:33:16;4.55;;;1.75;;
31818;SDS011;18384;48.860;9.188;2022-08-21T14:35:53;7.47;;;2.33;;
31818;SDS011;18384;48.860;9.188;2022-08-21T14:40:55;11.18;;;1.75;;
31818;SDS011;18384;48.860;9.188;2022-08-21T14:43:26;7.65;;;1.87;;
31818;SDS011;18384;48.860;9.188;2022-08-21T14:45:53;4.62;;;2.05;;
31818;SDS011;18384;48.860;9.188;2022-08-21T14:48:20;4.85;;;1.67;;
31818;SDS011;18384;48.860;9.188;2022-08-21T14:53:12;5.97;;;2.08;;
31818;SDS011;18384;48.860;9.188;2022-08-21T14:58:23;5.82;;;1.92;;
31818;SDS011;18384;48.860;9.188;2022-08-21T15:00:53;8.55;;;2.03;;
31818;SDS011;18384;48.860;9.188;2022-08-21T15:03:21;5.00;;;1.85;;
31818;SDS011;18384;48.860;9.188;2022-08-21T15:08:13;5.00;;;2.40;;
31818;SDS011;18384;48.860;9.188;2022-08-21T15:10:39;7.40;;;2.05;;
31818;SDS011;18384;48.860;9.188;2022-08-21T15:13:06;4.32;;;1.73;;
31818;SDS011;18384;48.860;9.188;2022-08-21T15:15:34;8.15;;;1.85;;
31818;SDS011;18384;48.860;9.188;2022-08-21T15:18:07;7.50;;;1.83;;
31818;SDS011;18384;48.860;9.188;2022-08-21T15:20:33;5.35;;;1.95;;
31818;SDS011;18384;48.860;9.188;2022-08-21T15:23:01;3.60;;;1.70;;
31818;SDS011;18384;48.860;9.188;2022-08-21T15:25:28;5.50;;;2.20;;
31818;SDS011;18384;48.860;9.188;2022-08-21T15:27:54;3.97;;;1.58;;
31818;SDS011;18384;48.860;9.188;2022-08-21T15:30:21;6.90;;;2.00;;
31818;SDS011;18384;48.860;9.188;2022-08-21T15:32:48;4.82;;;1.80;;
31818;SDS011;18384;48.860;9.188;2022-08-21T15:37:40;6.47;;;2.05;;
31818;SDS011;18384;48.860;9.188;2022-08-21T15:42:33;7.95;;;2.50;;
31818;SDS011;18384;48.860;9.188;2022-08-21T15:44:59;8.43;;;1.90;;
31818;SDS011;18384;48.860;9.188;2022-08-21T15:47:29;6.75;;;2.20;;
31818;SDS011;18384;48.860;9.188;2022-08-21T15:50:00;6.30;;;2.20;;
31818;SDS011;18384;48.860;9.188;2022-08-21T15:52:29;5.28;;;1.90;;
31818;SDS011;18384;48.860;9.188;2022-08-21T15:57:22;5.70;;;2.15;;
31818;SDS011;18384;48.860;9.188;2022-08-21T15:59:53;6.05;;;2.00;;
31818;SDS011;18384;48.860;9.188;2022-08-21T16:02:34;5.85;;;1.55;;
31818;SDS011;18384;48.860;9.188;2022-08-21T16:05:01;6.47;;;1.83;;
31818;SDS011;18384;48.860;9.188;2022-08-21T16:07:28;4.85;;;2.08;;
31818;SDS011;18384;48.860;9.188;2022-08-21T16:12:25;4.78;;;1.85;;
31818;SDS011;18384;48.860;9.188;2022-08-21T16:14:56;5.62;;;1.92;;
31818;SDS011;18384;48.860;9.188;2022-08-21T16:17:28;6.00;;;1.50;;
31818;SDS011;18384;48.860;9.188;2022-08-21T16:20:03;4.25;;;1.90;;
31818;SDS011;18384;48.860;9.188;2022-08-21T16:22:35;6.97;;;2.05;;
31818;SDS011;18384;48.860;9.188;2022-08-21T16:25:02;6.97;;;2.15;;
31818;SDS011;18384;48.860;9.188;2022-08-21T16:27:30;5.25;;;1.80;;
31818;SDS011;18384;48.860;9.188;2022-08-21T16:29:57;6.62;;;1.85;;
31818;SDS011;18384;48.860;9.188;2022-08-21T16:32:23;4.93;;;1.85;;
31818;SDS011;18384;48.860;9.188;2022-08-21T16:37:15;3.50;;;1.83;;
31818;SDS011;18384;48.860;9.188;2022-08-21T16:39:42;6.95;;;2.78;;
31818;SDS011;18384;48.860;9.188;2022-08-21T16:44:41;5.85;;;2.12;;
31818;SDS011;18384;48.860;9.188;2022-08-21T16:47:07;8.63;;;4.03;;
31818;SDS011;18384;48.860;9.188;2022-08-21T16:52:00;5.53;;;2.10;;
31818;SDS011;18384;48.860;9.188;2022-08-21T16:54:26;4.03;;;1.90;;
31818;SDS011;18384;48.860;9.188;2022-08-21T16:56:55;8.80;;;2.22;;
31818;SDS011;18384;48.860;9.188;2022-08-21T16:59:22;4.95;;;1.92;;
31818;SDS011;18384;48.860;9.188;2022-08-21T17:01:49;4.85;;;1.70;;
31818;SDS011;18384;48.860;9.188;2022-08-21T17:04:17;5.70;;;2.33;;
31818;SDS011;18384;48.860;9.188;2022-08-21T17:06:45;7.22;;;1.87;;
31818;SDS011;18384;48.860;9.188;2022-08-21T17:09:12;5.30;;;1.70;;
31818;SDS011;18384;48.860;9.188;2022-08-21T17:14:10;3.60;;;2.10;;
31818;SDS011;18384;48.860;9.188;2022-08-21T17:16:45;8.50;;;2.55;;
31818;SDS011;18384;48.860;9.188;2022-08-21T17:19:16;6.45;;;2.42;;
31818;SDS011;18384;48.860;9.188;2022-08-21T17:21:43;4.28;;;1.52;;
31818;SDS011;18384;48.860;9.188;2022-08-21T17:24:09;4.30;;;2.03;;
31818;SDS011;18384;48.860;9.188;2022-08-21T17:26:40;9.65;;;2.10;;
31818;SDS011;18384;48.860;9.188;2022-08-21T17:29:08;5.60;;;2.20;;
31818;SDS011;18384;48.860;9.188;2022-08-21T17:31:37;4.85;;;2.00;;
31818;SDS011;18384;48.860;9.188;2022-08-21T17:34:05;4.62;;;1.83;;
31818;SDS011;18384;48.860;9.188;2022-08-21T17:36:32;4.90;;;1.90;;
31818;SDS011;18384;48.860;9.188;2022-08-21T17:38:58;7.55;;;2.30;;
31818;SDS011;18384;48.860;9.188;2022-08-21T17:43:51;7.25;;;1.85;;
31818;SDS011;18384;48.860;9.188;2022-08-21T17:46:23;5.78;;;2.10;;
31818;SDS011;18384;48.860;9.188;2022-08-21T17:48:52;6.37;;;2.37;;
31818;SDS011;18384;48.860;9.188;2022-08-21T17:51:19;7.10;;;2.25;;
31818;SDS011;18384;48.860;9.188;2022-08-21T17:53:46;4.62;;;1.80;;
31818;SDS011;18384;48.860;9.188;2022-08-21T17:58:40;7.40;;;2.25;;
31818;SDS011;18384;48.860;9.188;2022-08-21T18:01:12;4.82;;;1.85;;